createdAt,value
2023-04-02T00:02:59.576Z,57.10
2023-04-02T00:08:10.287Z,57.96
2023-04-02T00:13:12.656Z,57.88
2023-04-02T00:18:22.298Z,58.11
2023-04-02T00:23:25.005Z,58.88
2023-04-02T00:28:27.510Z,60.33
2023-04-02T00:33:32.224Z,62.38
2023-04-02T00:38:36.092Z,63.02
2023-04-02T00:43:39.938Z,63.44
2023-04-02T00:48:51.652Z,63.24
2023-04-02T00:53:57.880Z,62.94
2023-04-02T00:59:01.185Z,63.23
2023-04-02T01:04:06.010Z,62.63
2023-04-02T01:09:14.653Z,62.94
2023-04-02T01:14:36.958Z,62.92
2023-04-02T01:20:07.798Z,62.43
2023-04-02T01:25:18.704Z,62.15
2023-04-02T01:30:22.294Z,61.58
2023-04-02T01:35:28.261Z,62.00
2023-04-02T01:40:33.948Z,61.62
2023-04-02T01:45:37.030Z,61.85
2023-04-02T01:50:41.975Z,62.03
2023-04-02T01:55:59.861Z,62.17
2023-04-02T02:01:24.811Z,62.85
2023-04-02T02:06:28.835Z,62.78
2023-04-02T02:11:33.889Z,62.07
2023-04-02T02:16:42.163Z,61.97
2023-04-02T02:21:52.447Z,61.58
2023-04-02T02:27:05.254Z,61.78
2023-04-02T02:32:12.129Z,61.74
2023-04-02T02:37:24.080Z,62.53
2023-04-02T02:42:39.160Z,62.09
2023-04-02T02:47:44.270Z,62.62
2023-04-02T02:52:53.620Z,62.37
2023-04-02T02:58:27.806Z,62.64
2023-04-02T03:03:41.189Z,61.78
2023-04-02T03:08:54.775Z,62.14
2023-04-02T03:14:36.951Z,61.94
2023-04-02T03:19:53.149Z,62.24
2023-04-02T03:25:00.967Z,62.54
2023-04-02T03:30:23.634Z,62.26
2023-04-02T03:35:53.929Z,62.54
2023-04-02T03:41:47.078Z,61.99
2023-04-02T03:47:01.843Z,61.82
2023-04-02T03:52:12.313Z,62.13
2023-04-02T03:57:27.415Z,62.04
2023-04-02T04:02:53.447Z,61.60
2023-04-02T04:08:03.803Z,61.18
2023-04-02T04:13:12.649Z,60.99
2023-04-02T04:18:40.266Z,60.82
2023-04-02T04:23:51.878Z,60.70
2023-04-02T04:29:14.213Z,60.74
2023-04-02T04:34:42.537Z,60.95
2023-04-02T04:40:03.309Z,60.98
2023-04-02T04:45:30.286Z,61.15
2023-04-02T04:50:39.093Z,60.80
2023-04-02T04:55:49.209Z,60.46
2023-04-02T05:01:00.504Z,60.57
2023-04-02T05:06:13.209Z,60.50
2023-04-02T05:11:32.422Z,60.72
2023-04-02T05:16:52.075Z,61.05
2023-04-02T05:22:19.504Z,61.33
2023-04-02T05:27:47.347Z,62.48
2023-04-02T05:33:18.162Z,62.69
2023-04-02T05:38:28.851Z,63.06
2023-04-02T05:43:35.119Z,63.36
2023-04-02T05:48:43.646Z,63.40
2023-04-02T05:53:59.851Z,63.37
2023-04-02T05:59:16.440Z,62.97
2023-04-02T06:04:34.609Z,62.77
2023-04-02T06:09:44.851Z,62.93
2023-04-02T06:14:48.216Z,62.34
2023-04-02T06:19:56.489Z,61.67
2023-04-02T06:25:06.402Z,60.89
2023-04-02T06:30:26.512Z,60.14
2023-04-02T06:35:29.603Z,60.33
2023-04-02T06:40:52.808Z,59.83
2023-04-02T06:46:51.803Z,58.71
2023-04-02T06:51:56.816Z,58.64
2023-04-02T06:57:00.884Z,57.62
2023-04-02T07:02:40.140Z,56.50
2023-04-02T07:07:46.290Z,55.54
2023-04-02T07:12:49.938Z,53.82
2023-04-02T07:17:53.581Z,53.71
2023-04-02T07:22:57.333Z,52.54
2023-04-02T07:27:59.955Z,51.84
2023-04-02T07:33:02.524Z,50.78
2023-04-02T07:38:04.995Z,49.74
2023-04-02T07:43:07.817Z,48.58
2023-04-02T07:48:14.340Z,46.94
2023-04-02T07:53:32.517Z,48.03
2023-04-02T07:58:34.990Z,47.55
2023-04-02T08:03:37.654Z,46.38
2023-04-02T08:08:40.700Z,46.09
2023-04-02T08:13:43.563Z,45.70
2023-04-02T08:18:47.947Z,45.26
2023-04-02T08:23:50.762Z,45.60
2023-04-02T08:28:53.315Z,45.67
2023-04-02T08:33:57.090Z,44.99
2023-04-02T08:38:59.733Z,44.41
2023-04-02T08:44:32.620Z,44.18
2023-04-02T08:50:16.624Z,43.73
2023-04-02T08:55:26.270Z,43.83
2023-04-02T09:00:49.538Z,43.93
2023-04-02T09:05:52.961Z,43.34
2023-04-02T09:11:08.828Z,43.32
2023-04-02T09:16:15.025Z,43.00
2023-04-02T09:21:32.543Z,42.83
2023-04-02T09:26:35.340Z,43.09
2023-04-02T09:31:45.402Z,43.32
2023-04-02T09:36:48.193Z,43.72
2023-04-02T09:42:02.814Z,43.02
2023-04-02T09:47:25.380Z,43.69
2023-04-02T09:52:30.095Z,43.25
2023-04-02T09:57:33.665Z,42.74
2023-04-02T10:02:37.101Z,42.79
2023-04-02T10:07:46.170Z,42.44
2023-04-02T10:13:00.425Z,42.55
2023-04-02T10:18:35.302Z,42.08
2023-04-02T10:23:37.769Z,42.11
2023-04-02T10:29:28.095Z,41.47
2023-04-02T10:34:54.541Z,41.18
2023-04-02T10:40:34.296Z,41.42
2023-04-02T10:46:02.555Z,41.34
2023-04-02T10:51:21.950Z,41.12
2023-04-02T10:56:26.574Z,40.80
2023-04-02T11:01:31.296Z,40.96
2023-04-02T11:06:43.563Z,41.09
2023-04-02T11:11:51.647Z,40.42
2023-04-02T11:16:58.813Z,39.59
2023-04-02T11:22:14.160Z,39.47
2023-04-02T11:27:33.886Z,38.37
2023-04-02T11:32:45.467Z,38.69
2023-04-02T11:43:32.926Z,39.35
2023-04-02T11:48:36.804Z,38.24
2023-04-02T11:53:43.229Z,38.02
2023-04-02T11:59:00.648Z,37.84
2023-04-02T12:04:24.038Z,37.35
2023-04-02T12:09:28.248Z,37.09
2023-04-02T12:14:38.656Z,36.74
2023-04-02T12:19:41.581Z,37.12
2023-04-02T12:24:48.595Z,36.20
2023-04-02T12:29:52.536Z,36.15
2023-04-02T12:34:57.880Z,36.45
2023-04-02T12:40:07.498Z,36.58
2023-04-02T12:45:29.819Z,36.10
2023-04-02T12:50:34.228Z,36.16
2023-04-02T12:55:37.201Z,36.34
2023-04-02T13:00:40.191Z,36.54
2023-04-02T13:05:51.171Z,36.06
2023-04-02T13:11:02.170Z,35.62
2023-04-02T13:16:16.143Z,35.32
2023-04-02T13:21:21.502Z,35.34
2023-04-02T13:26:27.385Z,34.61
2023-04-02T13:31:31.728Z,34.31
2023-04-02T13:36:34.424Z,34.68
2023-04-02T13:41:48.958Z,34.88
2023-04-02T13:46:52.788Z,35.28
2023-04-02T13:52:00.576Z,35.69
2023-04-02T13:57:03.559Z,36.48
2023-04-02T14:02:17.414Z,37.27
2023-04-02T14:08:04.387Z,38.48
2023-04-02T14:13:33.854Z,38.85
2023-04-02T14:18:55.105Z,38.71
2023-04-02T14:24:09.768Z,39.28
2023-04-02T14:29:16.687Z,39.48
2023-04-02T14:34:58.407Z,39.98
2023-04-02T14:40:23.920Z,41.64
2023-04-02T14:45:58.188Z,43.53
2023-04-02T14:51:17.822Z,44.82
2023-04-02T14:56:22.226Z,44.89
2023-04-02T15:01:34.552Z,45.28
2023-04-02T15:06:52.801Z,45.92
2023-04-02T15:12:03.897Z,46.86
2023-04-02T15:22:43.933Z,48.18
2023-04-02T15:27:52.874Z,48.49
2023-04-02T15:33:16.831Z,48.90
2023-04-02T15:38:42.923Z,50.13
2023-04-02T15:43:57.811Z,50.03
2023-04-02T15:49:09.416Z,50.48
2023-04-02T15:54:27.956Z,51.62
2023-04-02T15:59:54.640Z,51.86
2023-04-02T16:05:18.973Z,52.65
2023-04-02T16:10:41.850Z,52.88
2023-04-02T16:15:56.302Z,53.25
2023-04-02T16:21:03.203Z,53.35
2023-04-02T16:26:39.626Z,54.62
2023-04-02T16:31:55.622Z,54.92
2023-04-02T16:37:11.046Z,55.14
2023-04-02T16:42:43.562Z,55.82
2023-04-02T16:48:00.480Z,56.18
2023-04-02T16:53:18.543Z,56.28
2023-04-02T16:58:49.308Z,56.58
2023-04-02T17:04:15.027Z,56.98
2023-04-02T17:09:39.189Z,57.04
2023-04-02T17:14:57.868Z,57.34
2023-04-02T17:20:02.103Z,57.72
2023-04-02T17:25:07.886Z,58.51
2023-04-02T17:30:39.458Z,58.57
2023-04-02T17:35:51.189Z,58.92
2023-04-02T17:41:05.981Z,59.17
2023-04-02T17:46:17.929Z,59.69
2023-04-02T17:51:25.789Z,59.77
2023-04-02T17:56:39.351Z,60.12
2023-04-02T18:01:55.466Z,60.59
2023-04-02T18:07:39.688Z,60.84
2023-04-02T18:12:58.382Z,60.64
2023-04-02T18:18:19.291Z,61.05
2023-04-02T18:23:56.761Z,60.96
2023-04-02T18:29:21.026Z,61.73
2023-04-02T18:34:40.415Z,61.56
2023-04-02T18:40:03.771Z,61.74
2023-04-02T18:45:14.860Z,62.18
2023-04-02T18:50:29.677Z,62.34
2023-04-02T18:55:32.633Z,62.72
2023-04-02T19:00:39.387Z,62.82
2023-04-02T19:05:49.802Z,63.00
2023-04-02T19:10:58.183Z,63.17
2023-04-02T19:16:31.537Z,63.13
2023-04-02T19:21:40.263Z,63.01
2023-04-02T19:26:55.482Z,62.98
2023-04-02T19:32:07.087Z,63.00
2023-04-02T19:37:36.890Z,62.65
2023-04-02T19:42:51.815Z,62.48
2023-04-02T19:47:55.717Z,62.84
2023-04-02T19:52:58.726Z,62.37
2023-04-02T19:58:17.343Z,62.77
2023-04-02T20:03:22.530Z,62.91
2023-04-02T20:08:25.159Z,63.42
2023-04-02T20:13:28.076Z,63.37
2023-04-02T20:18:32.744Z,64.01
2023-04-02T20:23:36.555Z,64.04
2023-04-02T20:28:39.497Z,64.56
2023-04-02T20:33:42.783Z,64.88
2023-04-02T20:38:45.966Z,65.44
2023-04-02T20:43:50.131Z,66.08
2023-04-02T20:48:53.021Z,66.42
2023-04-02T20:53:55.878Z,67.06
2023-04-02T20:58:58.430Z,67.35
2023-04-02T21:04:04.212Z,67.86
2023-04-02T21:09:09.548Z,68.20
2023-04-02T21:14:12.499Z,69.03
2023-04-02T21:19:15.066Z,69.60
2023-04-02T21:24:17.537Z,69.67
2023-04-02T21:29:20.392Z,70.13
2023-04-02T21:34:23.016Z,69.82
2023-04-02T21:39:26.110Z,70.18
2023-04-02T21:44:28.779Z,70.46
2023-04-02T21:49:34.414Z,71.10
2023-04-02T21:54:36.831Z,71.00
2023-04-02T21:59:39.215Z,71.93
2023-04-02T22:04:42.209Z,72.04
2023-04-02T22:09:44.733Z,72.02
2023-04-02T22:14:47.724Z,72.48
2023-04-02T22:19:50.517Z,72.38
2023-04-02T22:24:52.946Z,72.75
2023-04-02T22:29:55.598Z,72.68
2023-04-02T22:35:00.461Z,72.63
2023-04-02T22:40:03.107Z,72.80
2023-04-02T22:45:06.750Z,72.71
2023-04-02T22:50:09.692Z,72.73
2023-04-02T22:55:18.245Z,72.71
2023-04-02T23:00:21.201Z,72.99
2023-04-02T23:05:23.834Z,72.60
2023-04-02T23:10:28.841Z,72.88
2023-04-02T23:15:33.094Z,72.44
2023-04-02T23:20:35.835Z,72.28
2023-04-02T23:25:38.634Z,72.09
2023-04-02T23:30:44.702Z,72.10
2023-04-02T23:35:47.419Z,72.20
2023-04-02T23:40:49.877Z,72.34
2023-04-02T23:45:52.451Z,71.52
2023-04-02T23:50:54.979Z,71.91
2023-04-02T23:55:57.900Z,72.02
